sensor_id;sensor_type;location;lat;lon;timestamp;P1;durP1;ratioP1;P2;durP2;ratioP2
75044;SDS011;63614;56.026;35.960;2022-12-18T00:00:53;10.55;;;7.00;;
75044;SDS011;63614;56.026;35.960;2022-12-18T00:03:19;11.85;;;7.00;;
75044;SDS011;63614;56.026;35.960;2022-12-18T00:05:48;11.13;;;6.57;;
75044;SDS011;63614;56.026;35.960;2022-12-18T00:08:15;12.40;;;6.15;;
75044;SDS011;63614;56.026;35.960;2022-12-18T00:10:41;11.85;;;5.85;;
75044;SDS011;63614;56.026;35.960;2022-12-18T00:13:07;10.73;;;6.75;;
75044;SDS011;63614;56.026;35.960;2022-12-18T00:15:34;12.70;;;6.20;;
75044;SDS011;63614;56.026;35.960;2022-12-18T00:18:00;9.50;;;5.97;;
75044;SDS011;63614;56.026;35.960;2022-12-18T00:20:26;10.50;;;5.82;;
75044;SDS011;63614;56.026;35.960;2022-12-18T00:22:52;9.45;;;4.93;;
75044;SDS011;63614;56.026;35.960;2022-12-18T00:25:19;10.00;;;5.93;;
75044;SDS011;63614;56.026;35.960;2022-12-18T00:27:44;13.25;;;6.28;;
75044;SDS011;63614;56.026;35.960;2022-12-18T00:30:10;12.65;;;5.90;;
75044;SDS011;63614;56.026;35.960;2022-12-18T00:32:37;11.93;;;6.53;;
75044;SDS011;63614;56.026;35.960;2022-12-18T00:35:04;11.77;;;7.13;;
75044;SDS011;63614;56.026;35.960;2022-12-18T00:37:32;14.48;;;6.40;;
75044;SDS011;63614;56.026;35.960;2022-12-18T00:39:58;10.27;;;5.85;;
75044;SDS011;63614;56.026;35.960;2022-12-18T00:42:24;9.43;;;4.68;;
75044;SDS011;63614;56.026;35.960;2022-12-18T00:45:08;8.18;;;4.65;;
75044;SDS011;63614;56.026;35.960;2022-12-18T00:47:34;10.15;;;6.25;;
75044;SDS011;63614;56.026;35.960;2022-12-18T00:50:00;8.73;;;5.40;;
75044;SDS011;63614;56.026;35.960;2022-12-18T00:52:26;8.82;;;4.72;;
75044;SDS011;63614;56.026;35.960;2022-12-18T00:54:52;8.75;;;5.75;;
75044;SDS011;63614;56.026;35.960;2022-12-18T00:57:17;7.45;;;4.57;;
75044;SDS011;63614;56.026;35.960;2022-12-18T00:59:43;10.68;;;6.25;;
75044;SDS011;63614;56.026;35.960;2022-12-18T01:02:10;9.30;;;5.82;;
75044;SDS011;63614;56.026;35.960;2022-12-18T01:04:38;9.25;;;6.00;;
75044;SDS011;63614;56.026;35.960;2022-12-18T01:07:04;8.75;;;5.10;;
75044;SDS011;63614;56.026;35.960;2022-12-18T01:09:29;10.88;;;6.25;;
75044;SDS011;63614;56.026;35.960;2022-12-18T01:11:55;10.85;;;6.80;;
75044;SDS011;63614;56.026;35.960;2022-12-18T01:14:21;7.40;;;5.07;;
75044;SDS011;63614;56.026;35.960;2022-12-18T01:16:47;8.73;;;3.85;;
75044;SDS011;63614;56.026;35.960;2022-12-18T01:19:13;11.98;;;6.55;;
75044;SDS011;63614;56.026;35.960;2022-12-18T01:21:39;9.18;;;5.80;;
75044;SDS011;63614;56.026;35.960;2022-12-18T01:24:05;8.43;;;4.93;;
75044;SDS011;63614;56.026;35.960;2022-12-18T01:26:32;8.95;;;5.35;;
75044;SDS011;63614;56.026;35.960;2022-12-18T01:28:58;9.55;;;5.93;;
75044;SDS011;63614;56.026;35.960;2022-12-18T01:31:25;9.02;;;4.88;;
75044;SDS011;63614;56.026;35.960;2022-12-18T01:33:53;11.07;;;6.55;;
75044;SDS011;63614;56.026;35.960;2022-12-18T01:36:21;12.77;;;6.25;;
75044;SDS011;63614;56.026;35.960;2022-12-18T01:38:55;11.48;;;7.03;;
75044;SDS011;63614;56.026;35.960;2022-12-18T01:41:26;13.05;;;7.15;;
75044;SDS011;63614;56.026;35.960;2022-12-18T01:47:21;12.70;;;7.75;;
75044;SDS011;63614;56.026;35.960;2022-12-18T01:52:42;10.10;;;5.57;;
75044;SDS011;63614;56.026;35.960;2022-12-18T01:55:10;9.38;;;5.78;;
75044;SDS011;63614;56.026;35.960;2022-12-18T01:57:39;9.35;;;5.68;;
75044;SDS011;63614;56.026;35.960;2022-12-18T02:00:10;7.68;;;4.80;;
75044;SDS011;63614;56.026;35.960;2022-12-18T02:02:42;9.35;;;6.13;;
75044;SDS011;63614;56.026;35.960;2022-12-18T02:05:11;10.57;;;5.40;;
75044;SDS011;63614;56.026;35.960;2022-12-18T02:07:54;8.32;;;5.20;;
75044;SDS011;63614;56.026;35.960;2022-12-18T02:11:06;9.18;;;6.20;;
75044;SDS011;63614;56.026;35.960;2022-12-18T02:19:27;9.32;;;5.53;;
75044;SDS011;63614;56.026;35.960;2022-12-18T02:27:45;9.18;;;5.10;;
75044;SDS011;63614;56.026;35.960;2022-12-18T02:30:15;11.15;;;6.78;;
75044;SDS011;63614;56.026;35.960;2022-12-18T02:32:42;9.90;;;5.85;;
75044;SDS011;63614;56.026;35.960;2022-12-18T02:35:15;8.18;;;4.38;;
75044;SDS011;63614;56.026;35.960;2022-12-18T02:37:49;7.65;;;4.88;;
75044;SDS011;63614;56.026;35.960;2022-12-18T02:40:15;10.63;;;6.97;;
75044;SDS011;63614;56.026;35.960;2022-12-18T02:42:43;6.70;;;4.35;;
75044;SDS011;63614;56.026;35.960;2022-12-18T02:45:13;6.78;;;3.92;;
75044;SDS011;63614;56.026;35.960;2022-12-18T02:47:40;9.65;;;6.18;;
75044;SDS011;63614;56.026;35.960;2022-12-18T02:50:31;10.38;;;6.45;;
75044;SDS011;63614;56.026;35.960;2022-12-18T02:58:26;9.48;;;5.72;;
75044;SDS011;63614;56.026;35.960;2022-12-18T03:03:59;8.77;;;4.60;;
75044;SDS011;63614;56.026;35.960;2022-12-18T03:06:45;7.93;;;4.50;;
75044;SDS011;63614;56.026;35.960;2022-12-18T03:09:17;7.90;;;4.35;;
75044;SDS011;63614;56.026;35.960;2022-12-18T03:11:48;8.45;;;5.65;;
75044;SDS011;63614;56.026;35.960;2022-12-18T03:14:38;9.80;;;6.00;;
75044;SDS011;63614;56.026;35.960;2022-12-18T03:17:09;11.75;;;5.30;;
75044;SDS011;63614;56.026;35.960;2022-12-18T03:19:39;8.18;;;5.30;;
75044;SDS011;63614;56.026;35.960;2022-12-18T03:22:09;7.78;;;4.13;;
75044;SDS011;63614;56.026;35.960;2022-12-18T03:24:44;12.57;;;6.30;;
75044;SDS011;63614;56.026;35.960;2022-12-18T03:27:12;5.40;;;3.45;;
75044;SDS011;63614;56.026;35.960;2022-12-18T03:29:48;10.90;;;5.63;;
75044;SDS011;63614;56.026;35.960;2022-12-18T03:32:26;11.20;;;5.57;;
75044;SDS011;63614;56.026;35.960;2022-12-18T03:34:58;10.88;;;5.60;;
75044;SDS011;63614;56.026;35.960;2022-12-18T03:37:32;5.10;;;2.92;;
75044;SDS011;63614;56.026;35.960;2022-12-18T03:39:58;9.52;;;5.50;;
75044;SDS011;63614;56.026;35.960;2022-12-18T03:42:26;7.78;;;4.55;;
75044;SDS011;63614;56.026;35.960;2022-12-18T03:47:56;7.68;;;4.90;;
75044;SDS011;63614;56.026;35.960;2022-12-18T03:50:45;8.00;;;4.75;;
75044;SDS011;63614;56.026;35.960;2022-12-18T03:55:49;9.35;;;5.35;;
75044;SDS011;63614;56.026;35.960;2022-12-18T03:58:18;10.73;;;5.03;;
75044;SDS011;63614;56.026;35.960;2022-12-18T04:00:59;8.98;;;5.60;;
75044;SDS011;63614;56.026;35.960;2022-12-18T04:03:28;9.30;;;5.07;;
75044;SDS011;63614;56.026;35.960;2022-12-18T04:05:57;11.43;;;5.93;;
75044;SDS011;63614;56.026;35.960;2022-12-18T04:08:26;9.15;;;4.47;;
75044;SDS011;63614;56.026;35.960;2022-12-18T04:11:02;8.70;;;5.03;;
75044;SDS011;63614;56.026;35.960;2022-12-18T04:13:29;7.68;;;5.03;;
75044;SDS011;63614;56.026;35.960;2022-12-18T04:16:01;9.23;;;4.68;;
75044;SDS011;63614;56.026;35.960;2022-12-18T04:18:27;9.23;;;5.68;;
75044;SDS011;63614;56.026;35.960;2022-12-18T04:20:53;12.90;;;6.00;;
75044;SDS011;63614;56.026;35.960;2022-12-18T04:23:19;12.63;;;6.60;;
75044;SDS011;63614;56.026;35.960;2022-12-18T04:25:46;12.02;;;6.22;;
75044;SDS011;63614;56.026;35.960;2022-12-18T04:28:19;8.32;;;5.65;;
75044;SDS011;63614;56.026;35.960;2022-12-18T04:30:46;6.88;;;4.15;;
75044;SDS011;63614;56.026;35.960;2022-12-18T04:33:16;10.68;;;6.32;;
75044;SDS011;63614;56.026;35.960;2022-12-18T04:35:43;7.97;;;5.25;;
75044;SDS011;63614;56.026;35.960;2022-12-18T04:38:09;6.57;;;3.05;;
75044;SDS011;63614;56.026;35.960;2022-12-18T04:40:38;8.90;;;5.45;;
75044;SDS011;63614;56.026;35.960;2022-12-18T04:43:10;9.38;;;5.80;;
75044;SDS011;63614;56.026;35.960;2022-12-18T04:45:36;8.90;;;4.82;;
75044;SDS011;63614;56.026;35.960;2022-12-18T04:48:02;8.25;;;4.78;;
75044;SDS011;63614;56.026;35.960;2022-12-18T04:50:29;8.65;;;4.93;;
75044;SDS011;63614;56.026;35.960;2022-12-18T04:52:55;8.52;;;5.50;;
75044;SDS011;63614;56.026;35.960;2022-12-18T04:55:21;11.45;;;6.75;;
75044;SDS011;63614;56.026;35.960;2022-12-18T04:57:47;9.32;;;5.07;;
75044;SDS011;63614;56.026;35.960;2022-12-18T05:00:12;11.05;;;4.97;;
75044;SDS011;63614;56.026;35.960;2022-12-18T05:02:38;9.05;;;5.10;;
75044;SDS011;63614;56.026;35.960;2022-12-18T05:05:04;11.13;;;5.72;;
75044;SDS011;63614;56.026;35.960;2022-12-18T05:07:30;9.43;;;4.32;;
75044;SDS011;63614;56.026;35.960;2022-12-18T05:09:56;10.57;;;5.60;;
75044;SDS011;63614;56.026;35.960;2022-12-18T05:12:23;8.25;;;4.45;;
75044;SDS011;63614;56.026;35.960;2022-12-18T05:14:48;10.57;;;5.95;;
75044;SDS011;63614;56.026;35.960;2022-12-18T05:17:14;11.82;;;5.95;;
75044;SDS011;63614;56.026;35.960;2022-12-18T05:19:40;10.18;;;5.72;;
75044;SDS011;63614;56.026;35.960;2022-12-18T05:22:06;10.65;;;5.57;;
75044;SDS011;63614;56.026;35.960;2022-12-18T05:24:31;9.98;;;5.03;;
75044;SDS011;63614;56.026;35.960;2022-12-18T05:26:57;9.63;;;6.13;;
75044;SDS011;63614;56.026;35.960;2022-12-18T05:29:23;6.72;;;4.10;;
75044;SDS011;63614;56.026;35.960;2022-12-18T05:31:49;9.77;;;5.55;;
75044;SDS011;63614;56.026;35.960;2022-12-18T05:34:15;10.02;;;5.18;;
75044;SDS011;63614;56.026;35.960;2022-12-18T05:36:40;10.93;;;6.38;;
75044;SDS011;63614;56.026;35.960;2022-12-18T05:39:06;7.10;;;4.30;;
75044;SDS011;63614;56.026;35.960;2022-12-18T05:41:32;9.05;;;5.10;;
75044;SDS011;63614;56.026;35.960;2022-12-18T05:43:58;8.65;;;5.32;;
75044;SDS011;63614;56.026;35.960;2022-12-18T05:46:24;6.85;;;4.18;;
75044;SDS011;63614;56.026;35.960;2022-12-18T05:48:50;5.82;;;3.35;;
75044;SDS011;63614;56.026;35.960;2022-12-18T05:51:17;11.68;;;5.93;;
75044;SDS011;63614;56.026;35.960;2022-12-18T05:53:45;7.65;;;4.38;;
75044;SDS011;63614;56.026;35.960;2022-12-18T05:56:16;6.00;;;4.03;;
75044;SDS011;63614;56.026;35.960;2022-12-18T05:58:44;11.27;;;5.53;;
75044;SDS011;63614;56.026;35.960;2022-12-18T06:03:39;8.27;;;4.60;;
75044;SDS011;63614;56.026;35.960;2022-12-18T06:06:12;9.25;;;5.47;;
75044;SDS011;63614;56.026;35.960;2022-12-18T06:08:42;13.23;;;6.15;;
75044;SDS011;63614;56.026;35.960;2022-12-18T06:11:08;8.93;;;4.78;;
75044;SDS011;63614;56.026;35.960;2022-12-18T06:13:33;10.30;;;5.93;;
75044;SDS011;63614;56.026;35.960;2022-12-18T06:16:01;10.68;;;5.32;;
75044;SDS011;63614;56.026;35.960;2022-12-18T06:18:28;8.70;;;5.57;;
75044;SDS011;63614;56.026;35.960;2022-12-18T06:20:55;9.10;;;5.55;;
75044;SDS011;63614;56.026;35.960;2022-12-18T06:23:21;9.10;;;5.03;;
75044;SDS011;63614;56.026;35.960;2022-12-18T06:25:47;7.40;;;4.22;;
75044;SDS011;63614;56.026;35.960;2022-12-18T06:28:13;11.13;;;6.60;;
75044;SDS011;63614;56.026;35.960;2022-12-18T06:30:38;6.75;;;4.18;;
75044;SDS011;63614;56.026;35.960;2022-12-18T06:33:04;8.57;;;5.70;;
75044;SDS011;63614;56.026;35.960;2022-12-18T06:35:31;7.07;;;4.47;;
75044;SDS011;63614;56.026;35.960;2022-12-18T06:37:57;9.15;;;5.55;;
75044;SDS011;63614;56.026;35.960;2022-12-18T06:40:23;7.93;;;4.35;;
75044;SDS011;63614;56.026;35.960;2022-12-18T06:42:48;7.30;;;4.75;;
75044;SDS011;63614;56.026;35.960;2022-12-18T06:45:14;7.85;;;4.03;;
75044;SDS011;63614;56.026;35.960;2022-12-18T06:47:40;8.30;;;4.82;;
75044;SDS011;63614;56.026;35.960;2022-12-18T06:50:06;7.88;;;4.88;;
75044;SDS011;63614;56.026;35.960;2022-12-18T06:52:33;5.60;;;3.50;;
75044;SDS011;63614;56.026;35.960;2022-12-18T06:54:59;8.32;;;4.68;;
75044;SDS011;63614;56.026;35.960;2022-12-18T06:57:25;8.38;;;5.05;;
75044;SDS011;63614;56.026;35.960;2022-12-18T06:59:50;8.73;;;4.15;;
75044;SDS011;63614;56.026;35.960;2022-12-18T07:02:17;6.88;;;4.25;;
75044;SDS011;63614;56.026;35.960;2022-12-18T07:04:42;5.47;;;3.60;;
75044;SDS011;63614;56.026;35.960;2022-12-18T07:07:08;7.70;;;4.25;;
75044;SDS011;63614;56.026;35.960;2022-12-18T07:09:34;6.90;;;3.92;;
75044;SDS011;63614;56.026;35.960;2022-12-18T07:12:00;4.43;;;2.97;;
75044;SDS011;63614;56.026;35.960;2022-12-18T07:14:25;7.32;;;4.30;;
75044;SDS011;63614;56.026;35.960;2022-12-18T07:16:51;7.90;;;4.30;;
75044;SDS011;63614;56.026;35.960;2022-12-18T07:19:17;8.25;;;4.05;;
75044;SDS011;63614;56.026;35.960;2022-12-18T07:21:43;5.75;;;3.63;;
75044;SDS011;63614;56.026;35.960;2022-12-18T07:24:08;8.48;;;4.32;;
75044;SDS011;63614;56.026;35.960;2022-12-18T07:26:34;8.35;;;4.60;;
75044;SDS011;63614;56.026;35.960;2022-12-18T07:29:00;4.93;;;3.45;;
75044;SDS011;63614;56.026;35.960;2022-12-18T07:31:26;7.45;;;3.88;;
75044;SDS011;63614;56.026;35.960;2022-12-18T07:33:52;6.15;;;3.10;;
75044;SDS011;63614;56.026;35.960;2022-12-18T07:36:18;5.18;;;3.25;;
75044;SDS011;63614;56.026;35.960;2022-12-18T07:38:46;6.55;;;3.83;;
75044;SDS011;63614;56.026;35.960;2022-12-18T07:41:12;6.07;;;3.20;;
75044;SDS011;63614;56.026;35.960;2022-12-18T07:43:39;5.72;;;3.30;;
75044;SDS011;63614;56.026;35.960;2022-12-18T07:46:06;6.03;;;3.22;;
75044;SDS011;63614;56.026;35.960;2022-12-18T07:48:33;6.35;;;3.90;;
75044;SDS011;63614;56.026;35.960;2022-12-18T07:51:00;5.82;;;2.75;;
75044;SDS011;63614;56.026;35.960;2022-12-18T07:53:26;6.20;;;3.40;;
75044;SDS011;63614;56.026;35.960;2022-12-18T07:55:58;6.03;;;3.08;;
75044;SDS011;63614;56.026;35.960;2022-12-18T07:58:27;7.40;;;3.95;;
75044;SDS011;63614;56.026;35.960;2022-12-18T08:00:54;5.20;;;2.85;;
75044;SDS011;63614;56.026;35.960;2022-12-18T08:03:27;7.45;;;3.47;;
75044;SDS011;63614;56.026;35.960;2022-12-18T08:05:52;5.38;;;3.35;;
75044;SDS011;63614;56.026;35.960;2022-12-18T08:08:24;5.30;;;3.40;;
75044;SDS011;63614;56.026;35.960;2022-12-18T08:10:49;6.70;;;4.07;;
75044;SDS011;63614;56.026;35.960;2022-12-18T08:13:15;4.60;;;3.17;;
75044;SDS011;63614;56.026;35.960;2022-12-18T08:15:41;4.65;;;2.85;;
75044;SDS011;63614;56.026;35.960;2022-12-18T08:18:06;6.30;;;3.60;;
75044;SDS011;63614;56.026;35.960;2022-12-18T08:20:32;8.05;;;3.30;;
75044;SDS011;63614;56.026;35.960;2022-12-18T08:22:58;15.43;;;4.70;;
75044;SDS011;63614;56.026;35.960;2022-12-18T08:25:23;6.15;;;3.55;;
75044;SDS011;63614;56.026;35.960;2022-12-18T08:27:49;10.48;;;4.53;;
75044;SDS011;63614;56.026;35.960;2022-12-18T08:30:15;8.57;;;4.70;;
75044;SDS011;63614;56.026;35.960;2022-12-18T08:32:40;7.35;;;4.00;;
75044;SDS011;63614;56.026;35.960;2022-12-18T08:35:06;8.27;;;4.25;;
75044;SDS011;63614;56.026;35.960;2022-12-18T08:37:33;7.65;;;4.75;;
75044;SDS011;63614;56.026;35.960;2022-12-18T08:39:59;10.45;;;4.95;;
75044;SDS011;63614;56.026;35.960;2022-12-18T08:42:25;15.18;;;8.02;;
75044;SDS011;63614;56.026;35.960;2022-12-18T08:45:10;15.07;;;6.28;;
75044;SDS011;63614;56.026;35.960;2022-12-18T08:47:35;12.23;;;5.95;;
75044;SDS011;63614;56.026;35.960;2022-12-18T08:50:01;17.00;;;7.05;;
75044;SDS011;63614;56.026;35.960;2022-12-18T08:52:31;14.23;;;7.43;;
75044;SDS011;63614;56.026;35.960;2022-12-18T08:54:57;20.35;;;8.68;;
75044;SDS011;63614;56.026;35.960;2022-12-18T08:57:23;19.45;;;8.52;;
75044;SDS011;63614;56.026;35.960;2022-12-18T08:59:49;25.92;;;9.27;;
75044;SDS011;63614;56.026;35.960;2022-12-18T09:02:14;13.05;;;6.05;;
75044;SDS011;63614;56.026;35.960;2022-12-18T09:04:40;27.52;;;11.00;;
75044;SDS011;63614;56.026;35.960;2022-12-18T09:07:06;19.33;;;8.07;;
75044;SDS011;63614;56.026;35.960;2022-12-18T09:09:32;21.15;;;9.32;;
75044;SDS011;63614;56.026;35.960;2022-12-18T09:11:58;21.02;;;7.93;;
75044;SDS011;63614;56.026;35.960;2022-12-18T09:14:23;30.90;;;9.70;;
75044;SDS011;63614;56.026;35.960;2022-12-18T09:16:49;19.98;;;7.15;;
75044;SDS011;63614;56.026;35.960;2022-12-18T09:19:15;23.77;;;9.52;;
75044;SDS011;63614;56.026;35.960;2022-12-18T09:21:41;24.77;;;8.88;;
75044;SDS011;63614;56.026;35.960;2022-12-18T09:24:08;21.83;;;8.35;;
75044;SDS011;63614;56.026;35.960;2022-12-18T09:26:37;28.75;;;9.30;;
75044;SDS011;63614;56.026;35.960;2022-12-18T09:29:03;26.13;;;9.13;;
75044;SDS011;63614;56.026;35.960;2022-12-18T09:31:29;15.60;;;7.20;;
75044;SDS011;63614;56.026;35.960;2022-12-18T09:33:55;21.85;;;6.93;;
75044;SDS011;63614;56.026;35.960;2022-12-18T09:36:22;31.30;;;10.13;;
75044;SDS011;63614;56.026;35.960;2022-12-18T09:38:47;27.50;;;9.70;;
75044;SDS011;63614;56.026;35.960;2022-12-18T09:44:11;18.80;;;8.20;;
75044;SDS011;63614;56.026;35.960;2022-12-18T09:46:44;28.60;;;10.38;;
75044;SDS011;63614;56.026;35.960;2022-12-18T09:49:31;21.17;;;7.70;;
75044;SDS011;63614;56.026;35.960;2022-12-18T09:52:04;20.58;;;9.02;;
75044;SDS011;63614;56.026;35.960;2022-12-18T09:54:40;16.77;;;7.68;;
75044;SDS011;63614;56.026;35.960;2022-12-18T09:57:11;20.02;;;7.38;;
75044;SDS011;63614;56.026;35.960;2022-12-18T09:59:40;18.40;;;8.05;;
75044;SDS011;63614;56.026;35.960;2022-12-18T10:02:22;14.52;;;7.25;;
75044;SDS011;63614;56.026;35.960;2022-12-18T10:05:34;28.80;;;9.73;;
75044;SDS011;63614;56.026;35.960;2022-12-18T10:10:57;20.88;;;8.15;;
75044;SDS011;63614;56.026;35.960;2022-12-18T10:21:18;23.27;;;9.00;;
75044;SDS011;63614;56.026;35.960;2022-12-18T10:23:50;11.68;;;5.25;;
75044;SDS011;63614;56.026;35.960;2022-12-18T10:26:22;15.68;;;7.57;;
75044;SDS011;63614;56.026;35.960;2022-12-18T10:28:48;16.52;;;6.40;;
75044;SDS011;63614;56.026;35.960;2022-12-18T10:31:17;19.10;;;6.70;;
75044;SDS011;63614;56.026;35.960;2022-12-18T10:33:45;18.73;;;6.57;;
75044;SDS011;63614;56.026;35.960;2022-12-18T10:36:11;13.38;;;6.10;;
75044;SDS011;63614;56.026;35.960;2022-12-18T10:38:37;12.45;;;6.22;;
75044;SDS011;63614;56.026;35.960;2022-12-18T10:41:04;18.02;;;6.93;;
75044;SDS011;63614;56.026;35.960;2022-12-18T10:44:10;16.55;;;6.45;;
75044;SDS011;63614;56.026;35.960;2022-12-18T10:46:36;11.90;;;5.55;;
75044;SDS011;63614;56.026;35.960;2022-12-18T10:49:02;10.10;;;4.32;;
75044;SDS011;63614;56.026;35.960;2022-12-18T10:51:34;10.45;;;5.28;;
75044;SDS011;63614;56.026;35.960;2022-12-18T10:54:06;14.65;;;5.80;;
75044;SDS011;63614;56.026;35.960;2022-12-18T10:56:47;10.05;;;4.32;;
75044;SDS011;63614;56.026;35.960;2022-12-18T10:59:14;12.43;;;5.25;;
75044;SDS011;63614;56.026;35.960;2022-12-18T11:01:54;12.55;;;5.80;;
75044;SDS011;63614;56.026;35.960;2022-12-18T11:04:30;9.02;;;4.47;;
75044;SDS011;63614;56.026;35.960;2022-12-18T11:09:34;7.13;;;3.55;;
75044;SDS011;63614;56.026;35.960;2022-12-18T11:12:02;6.80;;;3.80;;
75044;SDS011;63614;56.026;35.960;2022-12-18T11:14:50;8.30;;;4.43;;
75044;SDS011;63614;56.026;35.960;2022-12-18T11:17:21;11.60;;;5.00;;
75044;SDS011;63614;56.026;35.960;2022-12-18T11:19:59;5.72;;;3.47;;
75044;SDS011;63614;56.026;35.960;2022-12-18T11:22:33;11.23;;;4.68;;
75044;SDS011;63614;56.026;35.960;2022-12-18T11:25:21;8.70;;;5.10;;
75044;SDS011;63614;56.026;35.960;2022-12-18T11:27:47;6.40;;;2.97;;
75044;SDS011;63614;56.026;35.960;2022-12-18T11:33:15;10.18;;;4.68;;
75044;SDS011;63614;56.026;35.960;2022-12-18T11:38:23;9.05;;;5.10;;
75044;SDS011;63614;56.026;35.960;2022-12-18T11:40:53;9.50;;;5.35;;
75044;SDS011;63614;56.026;35.960;2022-12-18T11:43:45;5.53;;;3.50;;
75044;SDS011;63614;56.026;35.960;2022-12-18T11:46:29;7.85;;;4.95;;
75044;SDS011;63614;56.026;35.960;2022-12-18T11:49:14;11.20;;;5.00;;
75044;SDS011;63614;56.026;35.960;2022-12-18T11:54:20;4.72;;;3.03;;
75044;SDS011;63614;56.026;35.960;2022-12-18T11:56:51;8.70;;;4.00;;
75044;SDS011;63614;56.026;35.960;2022-12-18T11:59:32;7.05;;;3.67;;
75044;SDS011;63614;56.026;35.960;2022-12-18T12:10:45;6.10;;;3.92;;
75044;SDS011;63614;56.026;35.960;2022-12-18T12:13:36;10.00;;;4.35;;
75044;SDS011;63614;56.026;35.960;2022-12-18T12:21:45;11.13;;;4.22;;
75044;SDS011;63614;56.026;35.960;2022-12-18T12:37:46;7.32;;;3.63;;
75044;SDS011;63614;56.026;35.960;2022-12-18T12:40:30;8.75;;;4.25;;
75044;SDS011;63614;56.026;35.960;2022-12-18T12:43:01;8.98;;;4.38;;
75044;SDS011;63614;56.026;35.960;2022-12-18T12:45:48;13.68;;;5.47;;
75044;SDS011;63614;56.026;35.960;2022-12-18T12:51:18;14.80;;;6.35;;
75044;SDS011;63614;56.026;35.960;2022-12-18T12:53:47;13.77;;;5.90;;
75044;SDS011;63614;56.026;35.960;2022-12-18T12:56:17;14.73;;;7.22;;
75044;SDS011;63614;56.026;35.960;2022-12-18T13:07:13;21.08;;;8.75;;
75044;SDS011;63614;56.026;35.960;2022-12-18T13:13:04;16.25;;;7.40;;
75044;SDS011;63614;56.026;35.960;2022-12-18T13:15:41;20.45;;;7.53;;
75044;SDS011;63614;56.026;35.960;2022-12-18T13:18:13;14.60;;;6.47;;
75044;SDS011;63614;56.026;35.960;2022-12-18T13:25:58;12.13;;;5.47;;
75044;SDS011;63614;56.026;35.960;2022-12-18T13:33:45;16.73;;;7.88;;
75044;SDS011;63614;56.026;35.960;2022-12-18T13:36:16;23.80;;;8.82;;
75044;SDS011;63614;56.026;35.960;2022-12-18T13:38:55;22.13;;;9.75;;
75044;SDS011;63614;56.026;35.960;2022-12-18T13:41:36;25.13;;;8.13;;
75044;SDS011;63614;56.026;35.960;2022-12-18T13:44:11;23.17;;;8.50;;
75044;SDS011;63614;56.026;35.960;2022-12-18T13:46:49;25.02;;;8.50;;
75044;SDS011;63614;56.026;35.960;2022-12-18T13:51:48;22.30;;;8.45;;
75044;SDS011;63614;56.026;35.960;2022-12-18T13:56:59;24.27;;;8.05;;
75044;SDS011;63614;56.026;35.960;2022-12-18T13:59:25;24.77;;;8.18;;
75044;SDS011;63614;56.026;35.960;2022-12-18T14:02:15;30.00;;;10.32;;
75044;SDS011;63614;56.026;35.960;2022-12-18T14:04:46;33.70;;;10.68;;
75044;SDS011;63614;56.026;35.960;2022-12-18T14:07:14;28.30;;;8.88;;
75044;SDS011;63614;56.026;35.960;2022-12-18T14:09:52;21.27;;;8.98;;
75044;SDS011;63614;56.026;35.960;2022-12-18T14:12:22;21.73;;;8.35;;
75044;SDS011;63614;56.026;35.960;2022-12-18T14:15:19;28.85;;;11.30;;
75044;SDS011;63614;56.026;35.960;2022-12-18T14:20:24;21.60;;;9.48;;
75044;SDS011;63614;56.026;35.960;2022-12-18T14:22:52;22.80;;;9.73;;
75044;SDS011;63614;56.026;35.960;2022-12-18T14:25:20;18.98;;;8.65;;
75044;SDS011;63614;56.026;35.960;2022-12-18T14:27:52;17.83;;;9.07;;
75044;SDS011;63614;56.026;35.960;2022-12-18T14:33:00;24.55;;;9.45;;
75044;SDS011;63614;56.026;35.960;2022-12-18T14:35:26;19.35;;;8.73;;
75044;SDS011;63614;56.026;35.960;2022-12-18T14:37:52;20.88;;;9.43;;
75044;SDS011;63614;56.026;35.960;2022-12-18T14:40:18;15.68;;;8.02;;
75044;SDS011;63614;56.026;35.960;2022-12-18T14:42:43;20.00;;;8.57;;
75044;SDS011;63614;56.026;35.960;2022-12-18T14:48:05;16.60;;;7.45;;
75044;SDS011;63614;56.026;35.960;2022-12-18T14:50:31;15.95;;;7.43;;
75044;SDS011;63614;56.026;35.960;2022-12-18T14:52:57;19.10;;;8.88;;
75044;SDS011;63614;56.026;35.960;2022-12-18T14:55:23;23.67;;;8.27;;
75044;SDS011;63614;56.026;35.960;2022-12-18T14:57:49;15.05;;;7.65;;
75044;SDS011;63614;56.026;35.960;2022-12-18T15:00:19;15.48;;;6.75;;
75044;SDS011;63614;56.026;35.960;2022-12-18T15:02:48;15.93;;;6.90;;
75044;SDS011;63614;56.026;35.960;2022-12-18T15:05:25;15.10;;;6.95;;
75044;SDS011;63614;56.026;35.960;2022-12-18T15:07:56;17.75;;;6.75;;
75044;SDS011;63614;56.026;35.960;2022-12-18T15:10:29;16.52;;;8.40;;
75044;SDS011;63614;56.026;35.960;2022-12-18T15:23:21;17.85;;;8.32;;
75044;SDS011;63614;56.026;35.960;2022-12-18T15:25:47;17.63;;;9.13;;
75044;SDS011;63614;56.026;35.960;2022-12-18T15:28:54;14.80;;;7.80;;
75044;SDS011;63614;56.026;35.960;2022-12-18T15:31:21;18.10;;;8.13;;
75044;SDS011;63614;56.026;35.960;2022-12-18T15:36:17;16.70;;;8.18;;
75044;SDS011;63614;56.026;35.960;2022-12-18T15:38:47;15.23;;;6.75;;
75044;SDS011;63614;56.026;35.960;2022-12-18T15:41:14;19.83;;;9.48;;
75044;SDS011;63614;56.026;35.960;2022-12-18T15:43:41;15.68;;;8.75;;
75044;SDS011;63614;56.026;35.960;2022-12-18T15:46:11;14.80;;;7.65;;
75044;SDS011;63614;56.026;35.960;2022-12-18T15:48:43;16.58;;;8.20;;
75044;SDS011;63614;56.026;35.960;2022-12-18T15:53:58;13.48;;;6.40;;
75044;SDS011;63614;56.026;35.960;2022-12-18T15:56:26;13.30;;;6.97;;
75044;SDS011;63614;56.026;35.960;2022-12-18T15:59:14;9.30;;;4.68;;
75044;SDS011;63614;56.026;35.960;2022-12-18T16:01:43;9.00;;;4.82;;
75044;SDS011;63614;56.026;35.960;2022-12-18T16:04:14;13.38;;;6.70;;
75044;SDS011;63614;56.026;35.960;2022-12-18T16:06:41;12.07;;;5.40;;
75044;SDS011;63614;56.026;35.960;2022-12-18T16:09:08;11.65;;;5.90;;
75044;SDS011;63614;56.026;35.960;2022-12-18T16:11:34;13.50;;;6.93;;
75044;SDS011;63614;56.026;35.960;2022-12-18T16:14:17;11.45;;;6.88;;
75044;SDS011;63614;56.026;35.960;2022-12-18T16:16:47;14.07;;;7.25;;
75044;SDS011;63614;56.026;35.960;2022-12-18T16:19:18;11.63;;;6.72;;
75044;SDS011;63614;56.026;35.960;2022-12-18T16:21:45;17.50;;;6.93;;
75044;SDS011;63614;56.026;35.960;2022-12-18T16:24:15;12.50;;;7.03;;
75044;SDS011;63614;56.026;35.960;2022-12-18T16:26:42;13.52;;;6.40;;
75044;SDS011;63614;56.026;35.960;2022-12-18T16:29:08;14.20;;;6.55;;
75044;SDS011;63614;56.026;35.960;2022-12-18T16:31:35;11.55;;;6.05;;
75044;SDS011;63614;56.026;35.960;2022-12-18T16:36:41;9.00;;;5.47;;
75044;SDS011;63614;56.026;35.960;2022-12-18T16:39:06;12.23;;;6.53;;
75044;SDS011;63614;56.026;35.960;2022-12-18T16:41:32;11.93;;;5.68;;
75044;SDS011;63614;56.026;35.960;2022-12-18T16:43:59;10.07;;;5.38;;
75044;SDS011;63614;56.026;35.960;2022-12-18T16:46:26;8.40;;;4.97;;
75044;SDS011;63614;56.026;35.960;2022-12-18T16:48:52;10.45;;;5.32;;
75044;SDS011;63614;56.026;35.960;2022-12-18T16:51:17;8.63;;;5.15;;
75044;SDS011;63614;56.026;35.960;2022-12-18T16:53:44;12.10;;;6.03;;
75044;SDS011;63614;56.026;35.960;2022-12-18T16:56:13;13.13;;;6.38;;
75044;SDS011;63614;56.026;35.960;2022-12-18T16:58:39;10.60;;;5.28;;
75044;SDS011;63614;56.026;35.960;2022-12-18T17:01:09;14.63;;;7.05;;
75044;SDS011;63614;56.026;35.960;2022-12-18T17:03:36;10.27;;;5.80;;